sensor_id;sensor_type;location;lat;lon;timestamp;pressure;altitude;pressure_sealevel;temperature;humidity
42847;BME280;28495;49.916;14.536;2023-05-03T00:04:30;97668.44;;;9.96;61.27
42847;BME280;28495;49.916;14.536;2023-05-03T00:09:51;97667.34;;;9.98;61.38
42847;BME280;28495;49.916;14.536;2023-05-03T00:15:12;97666.19;;;10.02;61.47
42847;BME280;28495;49.916;14.536;2023-05-03T00:20:33;97673.78;;;10.05;61.49
42847;BME280;28495;49.916;14.536;2023-05-03T00:25:55;97669.38;;;10.06;61.20
42847;BME280;28495;49.916;14.536;2023-05-03T00:31:17;97668.16;;;9.99;60.89
42847;BME280;28495;49.916;14.536;2023-05-03T00:36:39;97671.34;;;9.91;61.17
42847;BME280;28495;49.916;14.536;2023-05-03T00:42:01;97670.66;;;9.89;61.27
42847;BME280;28495;49.916;14.536;2023-05-03T00:47:24;97670.41;;;9.92;61.08
42847;BME280;28495;49.916;14.536;2023-05-03T00:52:45;97667.56;;;9.95;61.15
42847;BME280;28495;49.916;14.536;2023-05-03T00:58:06;97677.34;;;10.04;61.02
42847;BME280;28495;49.916;14.536;2023-05-03T01:03:28;97666.06;;;10.04;61.13
42847;BME280;28495;49.916;14.536;2023-05-03T01:08:54;97677.78;;;9.98;61.08
42847;BME280;28495;49.916;14.536;2023-05-03T01:14:51;97675.53;;;9.94;60.92
42847;BME280;28495;49.916;14.536;2023-05-03T01:20:17;97680.56;;;9.84;61.12
42847;BME280;28495;49.916;14.536;2023-05-03T01:25:44;97679.13;;;9.80;60.82
42847;BME280;28495;49.916;14.536;2023-05-03T01:31:05;97672.00;;;9.70;61.06
42847;BME280;28495;49.916;14.536;2023-05-03T01:36:29;97678.16;;;9.69;61.35
42847;BME280;28495;49.916;14.536;2023-05-03T01:41:55;97679.03;;;9.81;61.26
42847;BME280;28495;49.916;14.536;2023-05-03T01:47:17;97684.91;;;9.72;61.08
42847;BME280;28495;49.916;14.536;2023-05-03T01:52:38;97686.34;;;9.76;61.13
42847;BME280;28495;49.916;14.536;2023-05-03T01:57:59;97681.34;;;9.73;61.34
42847;BME280;28495;49.916;14.536;2023-05-03T02:03:20;97680.06;;;9.79;61.34
42847;BME280;28495;49.916;14.536;2023-05-03T02:08:42;97679.69;;;9.72;61.04
42847;BME280;28495;49.916;14.536;2023-05-03T02:14:03;97687.81;;;9.56;61.26
42847;BME280;28495;49.916;14.536;2023-05-03T02:19:24;97685.38;;;9.41;60.98
42847;BME280;28495;49.916;14.536;2023-05-03T02:24:45;97692.78;;;9.35;61.32
42847;BME280;28495;49.916;14.536;2023-05-03T02:30:07;97691.34;;;9.30;61.25
42847;BME280;28495;49.916;14.536;2023-05-03T02:35:34;97707.16;;;9.27;61.31
42847;BME280;28495;49.916;14.536;2023-05-03T02:40:55;97710.09;;;9.23;61.26
42847;BME280;28495;49.916;14.536;2023-05-03T02:46:16;97692.16;;;9.31;61.45
42847;BME280;28495;49.916;14.536;2023-05-03T02:51:39;97691.72;;;9.37;61.43
42847;BME280;28495;49.916;14.536;2023-05-03T02:57:00;97698.94;;;9.34;61.16
42847;BME280;28495;49.916;14.536;2023-05-03T03:02:21;97703.75;;;9.27;60.44
42847;BME280;28495;49.916;14.536;2023-05-03T03:07:43;97715.69;;;9.29;60.48
42847;BME280;28495;49.916;14.536;2023-05-03T03:13:04;97711.97;;;9.21;60.41
42847;BME280;28495;49.916;14.536;2023-05-03T03:18:30;97714.03;;;9.28;60.16
42847;BME280;28495;49.916;14.536;2023-05-03T03:23:51;97717.25;;;9.32;59.94
42847;BME280;28495;49.916;14.536;2023-05-03T03:29:12;97717.09;;;9.46;60.35
42847;BME280;28495;49.916;14.536;2023-05-03T03:34:36;97723.16;;;9.47;60.02
42847;BME280;28495;49.916;14.536;2023-05-03T03:39:58;97728.69;;;9.42;59.93
42847;BME280;28495;49.916;14.536;2023-05-03T03:45:19;97724.59;;;9.51;60.19
42847;BME280;28495;49.916;14.536;2023-05-03T03:50:42;97725.00;;;9.58;60.19
42847;BME280;28495;49.916;14.536;2023-05-03T03:56:05;97728.19;;;9.61;59.66
42847;BME280;28495;49.916;14.536;2023-05-03T04:01:26;97723.25;;;9.45;59.78
42847;BME280;28495;49.916;14.536;2023-05-03T04:06:49;97725.19;;;9.30;59.25
42847;BME280;28495;49.916;14.536;2023-05-03T04:12:11;97726.13;;;9.29;59.51
42847;BME280;28495;49.916;14.536;2023-05-03T04:17:34;97734.97;;;9.27;59.14
42847;BME280;28495;49.916;14.536;2023-05-03T04:22:58;97741.84;;;9.28;59.65
42847;BME280;28495;49.916;14.536;2023-05-03T04:28:22;97753.47;;;9.35;59.48
42847;BME280;28495;49.916;14.536;2023-05-03T04:33:45;97751.31;;;9.29;59.14
42847;BME280;28495;49.916;14.536;2023-05-03T04:39:07;97764.44;;;9.27;58.99
42847;BME280;28495;49.916;14.536;2023-05-03T04:44:31;97766.00;;;9.30;59.05
42847;BME280;28495;49.916;14.536;2023-05-03T04:49:52;97772.22;;;9.40;58.76
42847;BME280;28495;49.916;14.536;2023-05-03T04:55:14;97774.50;;;9.45;58.56
42847;BME280;28495;49.916;14.536;2023-05-03T05:00:35;97774.88;;;9.52;58.67
42847;BME280;28495;49.916;14.536;2023-05-03T05:06:03;97781.44;;;9.57;58.23
42847;BME280;28495;49.916;14.536;2023-05-03T05:11:27;97786.63;;;9.57;58.36
42847;BME280;28495;49.916;14.536;2023-05-03T05:16:48;97792.75;;;9.69;58.04
42847;BME280;28495;49.916;14.536;2023-05-03T05:22:10;97804.00;;;9.70;57.99
42847;BME280;28495;49.916;14.536;2023-05-03T05:27:40;97802.97;;;9.72;57.92
42847;BME280;28495;49.916;14.536;2023-05-03T05:33:01;97805.72;;;9.58;57.36
42847;BME280;28495;49.916;14.536;2023-05-03T05:38:23;97810.81;;;9.46;57.45
42847;BME280;28495;49.916;14.536;2023-05-03T05:43:48;97814.47;;;9.57;57.97
42847;BME280;28495;49.916;14.536;2023-05-03T05:49:09;97824.13;;;9.68;57.48
42847;BME280;28495;49.916;14.536;2023-05-03T05:54:31;97829.69;;;9.87;57.07
42847;BME280;28495;49.916;14.536;2023-05-03T05:59:53;97822.94;;;9.85;56.83
42847;BME280;28495;49.916;14.536;2023-05-03T06:05:13;97829.03;;;10.45;57.10
42847;BME280;28495;49.916;14.536;2023-05-03T06:10:35;97832.63;;;11.03;56.13
42847;BME280;28495;49.916;14.536;2023-05-03T06:15:57;97833.09;;;11.19;55.27
42847;BME280;28495;49.916;14.536;2023-05-03T06:21:18;97828.38;;;11.36;55.22
42847;BME280;28495;49.916;14.536;2023-05-03T06:26:40;97844.16;;;11.57;54.57
42847;BME280;28495;49.916;14.536;2023-05-03T06:32:01;97839.94;;;11.88;54.61
42847;BME280;28495;49.916;14.536;2023-05-03T06:37:22;97852.41;;;11.85;54.27
42847;BME280;28495;49.916;14.536;2023-05-03T06:42:44;97844.13;;;11.68;53.82
42847;BME280;28495;49.916;14.536;2023-05-03T06:48:10;97856.41;;;12.23;54.58
42847;BME280;28495;49.916;14.536;2023-05-03T06:53:32;97854.31;;;12.38;53.82
42847;BME280;28495;49.916;14.536;2023-05-03T06:58:53;97852.31;;;11.86;53.25
42847;BME280;28495;49.916;14.536;2023-05-03T07:04:14;97860.16;;;11.64;53.27
42847;BME280;28495;49.916;14.536;2023-05-03T07:09:35;97855.53;;;11.56;53.57
42847;BME280;28495;49.916;14.536;2023-05-03T07:15:03;97850.69;;;11.51;53.78
42847;BME280;28495;49.916;14.536;2023-05-03T07:20:24;97863.16;;;11.48;53.86
42847;BME280;28495;49.916;14.536;2023-05-03T07:25:46;97845.22;;;11.32;53.16
42847;BME280;28495;49.916;14.536;2023-05-03T07:31:07;97854.44;;;11.13;54.03
42847;BME280;28495;49.916;14.536;2023-05-03T07:36:28;97841.06;;;11.29;53.63
42847;BME280;28495;49.916;14.536;2023-05-03T07:41:49;97849.34;;;11.11;53.23
42847;BME280;28495;49.916;14.536;2023-05-03T07:47:11;97849.22;;;11.13;53.53
42847;BME280;28495;49.916;14.536;2023-05-03T07:52:36;97857.06;;;11.13;53.33
42847;BME280;28495;49.916;14.536;2023-05-03T07:57:57;97846.38;;;11.05;53.17
42847;BME280;28495;49.916;14.536;2023-05-03T08:03:19;97852.19;;;10.97;53.26
42847;BME280;28495;49.916;14.536;2023-05-03T08:08:40;97862.75;;;10.95;53.50
42847;BME280;28495;49.916;14.536;2023-05-03T08:14:02;97855.72;;;10.85;53.55
42847;BME280;28495;49.916;14.536;2023-05-03T08:19:23;97860.00;;;10.86;53.79
42847;BME280;28495;49.916;14.536;2023-05-03T08:24:44;97859.78;;;11.00;53.97
42847;BME280;28495;49.916;14.536;2023-05-03T08:30:06;97844.00;;;11.02;53.57
42847;BME280;28495;49.916;14.536;2023-05-03T08:35:28;97842.59;;;11.43;54.03
42847;BME280;28495;49.916;14.536;2023-05-03T08:40:54;97840.09;;;11.53;52.81
42847;BME280;28495;49.916;14.536;2023-05-03T08:46:18;97843.19;;;11.58;53.10
42847;BME280;28495;49.916;14.536;2023-05-03T08:51:39;97843.19;;;11.69;53.41
42847;BME280;28495;49.916;14.536;2023-05-03T08:57:02;97845.09;;;11.79;52.97
42847;BME280;28495;49.916;14.536;2023-05-03T09:02:24;97846.25;;;11.86;52.88
42847;BME280;28495;49.916;14.536;2023-05-03T09:08:06;97837.78;;;12.05;52.98
42847;BME280;28495;49.916;14.536;2023-05-03T09:13:30;97840.72;;;12.23;53.08
42847;BME280;28495;49.916;14.536;2023-05-03T09:19:01;97838.44;;;12.30;52.71
42847;BME280;28495;49.916;14.536;2023-05-03T09:24:22;97839.44;;;12.06;52.20
42847;BME280;28495;49.916;14.536;2023-05-03T09:29:43;97831.50;;;12.08;53.00
42847;BME280;28495;49.916;14.536;2023-05-03T09:35:08;97838.06;;;12.34;53.26
42847;BME280;28495;49.916;14.536;2023-05-03T09:40:29;97828.31;;;12.79;53.22
42847;BME280;28495;49.916;14.536;2023-05-03T09:45:51;97835.72;;;12.74;52.92
42847;BME280;28495;49.916;14.536;2023-05-03T09:51:12;97842.75;;;12.52;52.63
42847;BME280;28495;49.916;14.536;2023-05-03T09:56:33;97831.25;;;12.64;52.76
42847;BME280;28495;49.916;14.536;2023-05-03T10:01:56;97832.16;;;12.75;52.91
42847;BME280;28495;49.916;14.536;2023-05-03T10:07:20;97821.88;;;12.83;52.19
42847;BME280;28495;49.916;14.536;2023-05-03T10:12:44;97831.81;;;12.47;52.54
42847;BME280;28495;49.916;14.536;2023-05-03T10:18:06;97818.34;;;12.30;52.21
42847;BME280;28495;49.916;14.536;2023-05-03T10:23:28;97814.53;;;12.34;52.02
42847;BME280;28495;49.916;14.536;2023-05-03T10:28:49;97812.16;;;12.31;52.36
42847;BME280;28495;49.916;14.536;2023-05-03T10:34:20;97811.22;;;12.54;52.65
42847;BME280;28495;49.916;14.536;2023-05-03T10:39:44;97810.00;;;12.58;52.28
42847;BME280;28495;49.916;14.536;2023-05-03T10:45:06;97812.63;;;12.58;52.23
42847;BME280;28495;49.916;14.536;2023-05-03T10:50:28;97806.28;;;12.81;51.86
42847;BME280;28495;49.916;14.536;2023-05-03T10:56:03;97809.31;;;12.77;51.59
42847;BME280;28495;49.916;14.536;2023-05-03T11:01:28;97804.91;;;12.77;51.85
42847;BME280;28495;49.916;14.536;2023-05-03T11:06:50;97792.50;;;12.79;51.71
42847;BME280;28495;49.916;14.536;2023-05-03T11:12:16;97791.03;;;12.87;51.83
42847;BME280;28495;49.916;14.536;2023-05-03T11:17:37;97786.13;;;12.93;52.00
42847;BME280;28495;49.916;14.536;2023-05-03T11:22:58;97789.88;;;12.79;51.91
42847;BME280;28495;49.916;14.536;2023-05-03T11:28:19;97777.94;;;12.87;52.78
42847;BME280;28495;49.916;14.536;2023-05-03T11:33:41;97779.41;;;12.79;52.50
42847;BME280;28495;49.916;14.536;2023-05-03T11:39:02;97776.75;;;12.91;51.28
42847;BME280;28495;49.916;14.536;2023-05-03T11:44:26;97786.69;;;12.76;51.67
42847;BME280;28495;49.916;14.536;2023-05-03T11:49:54;97774.13;;;12.91;51.75
42847;BME280;28495;49.916;14.536;2023-05-03T11:55:15;97770.59;;;12.80;50.97
42847;BME280;28495;49.916;14.536;2023-05-03T12:00:37;97772.22;;;12.93;51.28
42847;BME280;28495;49.916;14.536;2023-05-03T12:06:00;97767.03;;;13.13;51.75
42847;BME280;28495;49.916;14.536;2023-05-03T12:11:23;97760.28;;;13.41;51.44
42847;BME280;28495;49.916;14.536;2023-05-03T12:16:49;97757.75;;;13.39;50.48
42847;BME280;28495;49.916;14.536;2023-05-03T12:22:20;97754.53;;;13.26;50.92
42847;BME280;28495;49.916;14.536;2023-05-03T12:27:46;97765.31;;;13.33;50.98
42847;BME280;28495;49.916;14.536;2023-05-03T12:33:26;97754.16;;;13.31;50.98
42847;BME280;28495;49.916;14.536;2023-05-03T12:38:48;97742.44;;;13.35;50.26
42847;BME280;28495;49.916;14.536;2023-05-03T12:44:16;97741.78;;;13.43;50.58
42847;BME280;28495;49.916;14.536;2023-05-03T12:49:42;97739.06;;;13.54;50.27
42847;BME280;28495;49.916;14.536;2023-05-03T12:55:06;97746.13;;;13.63;50.57
42847;BME280;28495;49.916;14.536;2023-05-03T13:00:31;97734.25;;;13.69;49.80
42847;BME280;28495;49.916;14.536;2023-05-03T13:05:56;97733.72;;;13.65;50.01
42847;BME280;28495;49.916;14.536;2023-05-03T13:11:17;97722.81;;;13.70;49.68
42847;BME280;28495;49.916;14.536;2023-05-03T13:16:41;97726.94;;;13.72;49.70
42847;BME280;28495;49.916;14.536;2023-05-03T13:22:04;97719.09;;;13.82;49.49
42847;BME280;28495;49.916;14.536;2023-05-03T13:27:24;97714.13;;;13.89;49.18
42847;BME280;28495;49.916;14.536;2023-05-03T13:32:46;97707.91;;;13.80;48.84
42847;BME280;28495;49.916;14.536;2023-05-03T13:38:07;97703.78;;;13.78;48.42
42847;BME280;28495;49.916;14.536;2023-05-03T13:43:28;97685.56;;;13.86;48.14
42847;BME280;28495;49.916;14.536;2023-05-03T13:48:49;97681.84;;;13.79;48.03
42847;BME280;28495;49.916;14.536;2023-05-03T13:54:12;97679.50;;;13.95;48.51
42847;BME280;28495;49.916;14.536;2023-05-03T13:59:33;97668.69;;;14.08;48.81
42847;BME280;28495;49.916;14.536;2023-05-03T14:04:53;97677.25;;;14.10;48.58
42847;BME280;28495;49.916;14.536;2023-05-03T14:10:15;97677.25;;;14.00;47.87
42847;BME280;28495;49.916;14.536;2023-05-03T14:15:40;97671.78;;;13.84;48.07
42847;BME280;28495;49.916;14.536;2023-05-03T14:21:02;97675.59;;;13.99;48.41
42847;BME280;28495;49.916;14.536;2023-05-03T14:26:24;97675.47;;;14.11;47.98
42847;BME280;28495;49.916;14.536;2023-05-03T14:31:46;97670.34;;;14.09;48.47
42847;BME280;28495;49.916;14.536;2023-05-03T14:37:07;97673.56;;;14.13;47.91
42847;BME280;28495;49.916;14.536;2023-05-03T14:42:29;97680.72;;;14.11;48.03
42847;BME280;28495;49.916;14.536;2023-05-03T14:47:50;97674.09;;;14.16;48.16
42847;BME280;28495;49.916;14.536;2023-05-03T14:53:11;97669.00;;;14.05;47.99
42847;BME280;28495;49.916;14.536;2023-05-03T14:58:32;97673.13;;;14.17;48.44
42847;BME280;28495;49.916;14.536;2023-05-03T15:03:53;97677.38;;;14.28;48.40
42847;BME280;28495;49.916;14.536;2023-05-03T15:09:14;97666.47;;;14.23;48.04
42847;BME280;28495;49.916;14.536;2023-05-03T15:14:34;97669.00;;;14.05;48.09
42847;BME280;28495;49.916;14.536;2023-05-03T15:19:55;97670.66;;;14.06;47.62
42847;BME280;28495;49.916;14.536;2023-05-03T15:25:16;97670.09;;;14.02;47.80
42847;BME280;28495;49.916;14.536;2023-05-03T15:30:39;97668.31;;;14.03;47.98
42847;BME280;28495;49.916;14.536;2023-05-03T15:36:03;97667.63;;;14.11;48.28
42847;BME280;28495;49.916;14.536;2023-05-03T15:41:26;97670.09;;;14.12;47.60
42847;BME280;28495;49.916;14.536;2023-05-03T15:46:48;97670.50;;;14.08;47.52
42847;BME280;28495;49.916;14.536;2023-05-03T15:52:14;97673.81;;;14.00;47.26
42847;BME280;28495;49.916;14.536;2023-05-03T15:57:35;97681.69;;;13.90;47.29
42847;BME280;28495;49.916;14.536;2023-05-03T16:02:56;97673.03;;;13.80;47.41
42847;BME280;28495;49.916;14.536;2023-05-03T16:08:27;97672.59;;;13.84;47.88
42847;BME280;28495;49.916;14.536;2023-05-03T16:13:48;97670.94;;;13.83;47.21
42847;BME280;28495;49.916;14.536;2023-05-03T16:19:10;97675.63;;;13.70;46.75
42847;BME280;28495;49.916;14.536;2023-05-03T16:24:31;97676.06;;;13.75;47.35
42847;BME280;28495;49.916;14.536;2023-05-03T16:29:56;97657.00;;;13.73;46.97
42847;BME280;28495;49.916;14.536;2023-05-03T16:35:17;97641.97;;;13.65;46.48
42847;BME280;28495;49.916;14.536;2023-05-03T16:40:39;97655.19;;;13.54;46.48
42847;BME280;28495;49.916;14.536;2023-05-03T16:46:00;97659.34;;;13.56;46.69
42847;BME280;28495;49.916;14.536;2023-05-03T16:51:22;97649.56;;;13.59;46.30
42847;BME280;28495;49.916;14.536;2023-05-03T16:56:43;97652.31;;;13.57;46.14
42847;BME280;28495;49.916;14.536;2023-05-03T17:02:04;97656.56;;;13.48;45.69
42847;BME280;28495;49.916;14.536;2023-05-03T17:07:25;97648.56;;;13.40;45.89
42847;BME280;28495;49.916;14.536;2023-05-03T17:12:46;97657.25;;;13.40;46.29
42847;BME280;28495;49.916;14.536;2023-05-03T17:18:08;97653.25;;;13.46;46.50
42847;BME280;28495;49.916;14.536;2023-05-03T17:23:31;97651.63;;;13.45;46.68
42847;BME280;28495;49.916;14.536;2023-05-03T17:28:59;97658.91;;;13.41;46.20
42847;BME280;28495;49.916;14.536;2023-05-03T17:34:21;97663.06;;;13.44;46.40
42847;BME280;28495;49.916;14.536;2023-05-03T17:39:41;97660.00;;;13.39;46.66
42847;BME280;28495;49.916;14.536;2023-05-03T17:45:03;97652.28;;;13.37;46.67
42847;BME280;28495;49.916;14.536;2023-05-03T17:50:24;97653.63;;;13.32;46.69
42847;BME280;28495;49.916;14.536;2023-05-03T17:55:45;97663.41;;;13.39;47.38
42847;BME280;28495;49.916;14.536;2023-05-03T18:01:06;97658.59;;;13.35;47.41
42847;BME280;28495;49.916;14.536;2023-05-03T18:06:29;97650.75;;;13.35;47.68
42847;BME280;28495;49.916;14.536;2023-05-03T18:11:53;97663.81;;;13.25;47.72
42847;BME280;28495;49.916;14.536;2023-05-03T18:17:14;97658.16;;;13.20;47.64
42847;BME280;28495;49.916;14.536;2023-05-03T18:22:35;97656.50;;;13.19;47.89
42847;BME280;28495;49.916;14.536;2023-05-03T18:27:57;97656.75;;;13.06;47.80
42847;BME280;28495;49.916;14.536;2023-05-03T18:33:18;97667.19;;;12.96;47.98
42847;BME280;28495;49.916;14.536;2023-05-03T18:38:40;97676.00;;;12.85;48.17
42847;BME280;28495;49.916;14.536;2023-05-03T18:44:02;97676.50;;;12.79;48.22
42847;BME280;28495;49.916;14.536;2023-05-03T18:49:23;97681.75;;;12.79;48.11
42847;BME280;28495;49.916;14.536;2023-05-03T18:54:44;97687.84;;;12.58;48.26
42847;BME280;28495;49.916;14.536;2023-05-03T19:00:07;97678.38;;;12.36;48.37
42847;BME280;28495;49.916;14.536;2023-05-03T19:05:29;97686.47;;;12.33;48.39
42847;BME280;28495;49.916;14.536;2023-05-03T19:10:50;97692.41;;;12.14;48.44
42847;BME280;28495;49.916;14.536;2023-05-03T19:16:12;97696.94;;;12.12;48.37
42847;BME280;28495;49.916;14.536;2023-05-03T19:21:33;97709.91;;;12.13;48.80
42847;BME280;28495;49.916;14.536;2023-05-03T19:26:57;97713.47;;;12.12;48.60
42847;BME280;28495;49.916;14.536;2023-05-03T19:32:17;97720.28;;;12.03;48.26
42847;BME280;28495;49.916;14.536;2023-05-03T19:37:38;97712.47;;;11.81;47.97
42847;BME280;28495;49.916;14.536;2023-05-03T19:42:59;97722.53;;;11.64;48.06
42847;BME280;28495;49.916;14.536;2023-05-03T19:48:21;97724.25;;;11.42;48.14
42847;BME280;28495;49.916;14.536;2023-05-03T19:53:42;97723.06;;;11.35;48.54
42847;BME280;28495;49.916;14.536;2023-05-03T19:59:06;97721.78;;;11.18;48.28
42847;BME280;28495;49.916;14.536;2023-05-03T20:04:27;97717.53;;;10.94;48.65
42847;BME280;28495;49.916;14.536;2023-05-03T20:09:48;97718.13;;;10.87;48.89
42847;BME280;28495;49.916;14.536;2023-05-03T20:15:10;97715.16;;;10.80;49.23
42847;BME280;28495;49.916;14.536;2023-05-03T20:20:31;97712.22;;;10.73;49.22
42847;BME280;28495;49.916;14.536;2023-05-03T20:25:52;97711.84;;;10.78;49.57
42847;BME280;28495;49.916;14.536;2023-05-03T20:31:13;97711.13;;;10.76;49.61
42847;BME280;28495;49.916;14.536;2023-05-03T20:36:34;97707.69;;;10.75;49.68
42847;BME280;28495;49.916;14.536;2023-05-03T20:41:55;97697.50;;;10.72;49.45
42847;BME280;28495;49.916;14.536;2023-05-03T20:47:16;97700.22;;;10.71;49.44
42847;BME280;28495;49.916;14.536;2023-05-03T20:52:37;97713.38;;;10.69;49.75
42847;BME280;28495;49.916;14.536;2023-05-03T20:57:58;97707.56;;;10.65;50.26
42847;BME280;28495;49.916;14.536;2023-05-03T21:03:22;97697.81;;;10.67;50.15
42847;BME280;28495;49.916;14.536;2023-05-03T21:08:45;97697.25;;;10.64;50.57
42847;BME280;28495;49.916;14.536;2023-05-03T21:14:07;97696.78;;;10.59;50.28
42847;BME280;28495;49.916;14.536;2023-05-03T21:19:28;97699.84;;;10.52;50.08
42847;BME280;28495;49.916;14.536;2023-05-03T21:24:49;97689.69;;;10.36;50.22
42847;BME280;28495;49.916;14.536;2023-05-03T21:30:11;97687.66;;;10.17;50.55
42847;BME280;28495;49.916;14.536;2023-05-03T21:35:33;97693.09;;;10.14;50.75
42847;BME280;28495;49.916;14.536;2023-05-03T21:41:04;97698.56;;;10.11;50.45
42847;BME280;28495;49.916;14.536;2023-05-03T21:46:25;97695.00;;;10.12;50.79
42847;BME280;28495;49.916;14.536;2023-05-03T21:51:46;97701.03;;;10.13;50.65
42847;BME280;28495;49.916;14.536;2023-05-03T21:57:07;97694.06;;;10.13;50.99
42847;BME280;28495;49.916;14.536;2023-05-03T22:02:28;97703.28;;;10.17;50.80
42847;BME280;28495;49.916;14.536;2023-05-03T22:07:49;97698.66;;;10.10;51.24
42847;BME280;28495;49.916;14.536;2023-05-03T22:13:10;97697.47;;;10.02;50.93
42847;BME280;28495;49.916;14.536;2023-05-03T22:18:33;97697.13;;;10.07;51.47
42847;BME280;28495;49.916;14.536;2023-05-03T22:23:54;97691.56;;;10.12;51.39
42847;BME280;28495;49.916;14.536;2023-05-03T22:29:15;97684.66;;;9.99;51.46
42847;BME280;28495;49.916;14.536;2023-05-03T22:34:37;97689.28;;;9.96;51.42
42847;BME280;28495;49.916;14.536;2023-05-03T22:39:58;97677.78;;;9.98;51.56
42847;BME280;28495;49.916;14.536;2023-05-03T22:45:19;97680.41;;;10.10;51.66
42847;BME280;28495;49.916;14.536;2023-05-03T22:50:40;97680.41;;;10.10;51.55
42847;BME280;28495;49.916;14.536;2023-05-03T22:56:02;97679.75;;;10.19;51.89
42847;BME280;28495;49.916;14.536;2023-05-03T23:01:26;97675.84;;;10.25;51.66
42847;BME280;28495;49.916;14.536;2023-05-03T23:06:47;97675.34;;;10.31;51.81
42847;BME280;28495;49.916;14.536;2023-05-03T23:12:08;97673.22;;;10.25;51.54
42847;BME280;28495;49.916;14.536;2023-05-03T23:17:29;97674.53;;;10.19;51.84
42847;BME280;28495;49.916;14.536;2023-05-03T23:22:50;97669.91;;;10.22;51.65
42847;BME280;28495;49.916;14.536;2023-05-03T23:28:11;97665.19;;;10.28;52.06
42847;BME280;28495;49.916;14.536;2023-05-03T23:33:32;97660.19;;;10.25;51.74
42847;BME280;28495;49.916;14.536;2023-05-03T23:38:53;97653.78;;;10.17;51.73
42847;BME280;28495;49.916;14.536;2023-05-03T23:44:14;97660.22;;;9.89;51.55
42847;BME280;28495;49.916;14.536;2023-05-03T23:49:35;97658.66;;;9.86;51.89
42847;BME280;28495;49.916;14.536;2023-05-03T23:54:55;97664.91;;;9.72;51.76
